Airfield :
LOGIN :

Register | Disclaimer

   EN    FR    IT 

 










Legend :    VFR   Marginal VFR   IFR   Intensive IFR   Very Intensive IFR
Visi :
Ceiling :
>= 8 km
>= 3000ft
5 to 8 km
1000 to 3000 ft
1500m to 5 km
500 to 1000 ft
800 to 1500m
200 to 500 ft
< 800m
< 200 ft
Symbols :   Thunderstorms  Fog  Heavy snow  Heavy precipitations  Wind > 20 kt
SIGMETs :     Misc.  Thunderstorms  Icing  Turbulence  Mountain Waves  Volcanic Ashes







- Airport Elevation : 529 ft
- IATA code : CHR
- Download approach charts


LFLX - Chateauroux

CURRENT METAR :
  • 260830Z AUTO 31004KT 260V360 9999 FEW018 SCT120 18/12 Q1020 NOSIG

EXPIRED METARs :
  • 260800Z AUTO 29005KT 260V010 9999 SCT016 BKN060 BKN110 17/13 Q1020 NOSIG
  • 260730Z AUTO 29005KT 270V330 9999 FEW015 BKN110 17/13 Q1020 NOSIG
  • 260700Z AUTO 29003KT 240V330 CAVOK 16/13 Q1019 TEMPO 2000 BR VV///
  • 260630Z AUTO 27004KT 230V300 CAVOK 16/13 Q1019 TEMPO 2000 BR VV///
  • 260600Z AUTO 30005KT CAVOK 15/13 Q1019 TEMPO 2000 BR VV///

TAF TAF LFLX
Valid from the 26 at 06:00 until the 27 at 12:00 UTC


260500Z 2606/2712 32007KT CAVOK
PROB40
TEMPO 2606/2608 2000 BR VV///
TEMPO 2704/2712 4000 -RA OVC012
PROB30
TEMPO 2706/2712 2500 -RADZ OVC006
No reported NOTAMs for that airfield.



MET'MAP, your aeronautical weather chart ! - Copyright ORBIFLY December 2007 - Disclaimer

ORBIFLY MET'MAP TEAM :

Programming & Development : Alexandra Zaïnal
Concept & Development : Baudouin d'Aumeries
Co-Development & Prog : Marc-Olivier Méhu
Technical & hardware support : Manuel Goepfert

Contact : metmap@orbifly.com




SOURCES & CREDITS :

   NOAA